createdAt,value
2022-08-20T00:02:17.541Z,31.96
2022-08-20T00:04:45.373Z,31.79
2022-08-20T00:07:15.453Z,31.73
2022-08-20T00:09:43.958Z,31.99
2022-08-20T00:12:13.325Z,31.99
2022-08-20T00:14:41.221Z,31.85
2022-08-20T00:17:08.896Z,31.83
2022-08-20T00:19:37.398Z,31.81
2022-08-20T00:22:06.593Z,31.98
2022-08-20T00:24:35.135Z,31.98
2022-08-20T00:27:02.760Z,31.92
2022-08-20T00:29:31.842Z,31.94
2022-08-20T00:31:59.851Z,32.12
2022-08-20T00:34:27.882Z,32.02
2022-08-20T00:36:58.352Z,32.07
2022-08-20T00:39:25.848Z,32.05
2022-08-20T00:41:53.373Z,32.31
2022-08-20T00:44:22.877Z,31.87
2022-08-20T00:46:52.477Z,32.03
2022-08-20T00:49:28.239Z,31.85
2022-08-20T00:52:22.380Z,31.88
2022-08-20T00:54:59.703Z,31.86
2022-08-20T00:57:43.518Z,31.79
2022-08-20T01:00:39.207Z,31.67
2022-08-20T01:03:10.151Z,31.73
2022-08-20T01:05:40.803Z,31.52
2022-08-20T01:08:09.552Z,31.68
2022-08-20T01:10:41.570Z,31.35
2022-08-20T01:13:12.836Z,31.27
2022-08-20T01:15:43.652Z,30.93
2022-08-20T01:18:15.818Z,31.01
2022-08-20T01:20:55.082Z,30.66
2022-08-20T01:23:38.701Z,30.64
2022-08-20T01:26:15.022Z,30.54
2022-08-20T01:28:56.702Z,30.38
2022-08-20T01:31:28.279Z,30.31
2022-08-20T01:33:57.527Z,30.48
2022-08-20T01:36:46.670Z,30.28
2022-08-20T01:39:17.709Z,30.28
2022-08-20T01:42:08.214Z,30.12
2022-08-20T01:44:38.833Z,29.80
2022-08-20T01:47:15.157Z,29.95
2022-08-20T01:49:51.659Z,29.73
2022-08-20T01:52:27.498Z,29.72
2022-08-20T01:54:55.356Z,29.75
2022-08-20T01:57:27.288Z,29.39
2022-08-20T01:59:54.738Z,29.61
2022-08-20T02:02:24.481Z,29.38
2022-08-20T02:04:52.158Z,29.50
2022-08-20T02:07:22.987Z,29.44
2022-08-20T02:09:50.953Z,29.27
2022-08-20T02:12:18.992Z,29.24
2022-08-20T02:14:49.447Z,29.11
2022-08-20T02:17:18.232Z,28.94
2022-08-20T02:19:53.881Z,28.57
2022-08-20T02:22:35.139Z,28.42
2022-08-20T02:25:07.805Z,28.25
2022-08-20T02:27:37.223Z,28.06
2022-08-20T02:30:11.361Z,27.86
2022-08-20T02:32:47.033Z,27.75
2022-08-20T02:35:15.293Z,27.51
2022-08-20T02:37:44.651Z,27.41
2022-08-20T02:40:15.514Z,27.44
2022-08-20T02:42:43.446Z,27.25
2022-08-20T02:45:18.923Z,27.14
2022-08-20T02:47:46.969Z,27.17
2022-08-20T02:50:18.341Z,26.88
2022-08-20T02:52:52.002Z,27.16
2022-08-20T02:55:27.191Z,26.72
2022-08-20T02:58:00.591Z,26.69
2022-08-20T03:00:38.087Z,26.40
2022-08-20T03:03:10.303Z,26.37
2022-08-20T03:05:40.597Z,26.33
2022-08-20T03:08:10.538Z,26.32
2022-08-20T03:10:39.541Z,26.35
2022-08-20T03:13:11.542Z,26.77
2022-08-20T03:15:41.588Z,26.56
2022-08-20T03:18:09.781Z,26.38
2022-08-20T03:20:37.550Z,26.43
2022-08-20T03:23:07.437Z,27.00
2022-08-20T03:25:34.958Z,27.10
2022-08-20T03:28:04.229Z,27.25
2022-08-20T03:30:32.112Z,27.25
2022-08-20T03:33:00.526Z,27.32
2022-08-20T03:35:29.903Z,27.35
2022-08-20T03:37:58.314Z,27.21
2022-08-20T03:40:34.808Z,27.13
2022-08-20T03:43:02.521Z,27.23
2022-08-20T03:45:30.297Z,27.25
2022-08-20T03:47:58.352Z,27.45
2022-08-20T03:50:28.967Z,27.29
2022-08-20T03:52:57.940Z,27.20
2022-08-20T03:55:28.326Z,27.25
2022-08-20T03:57:59.308Z,27.09
2022-08-20T04:00:33.101Z,27.20
2022-08-20T04:03:01.904Z,27.23
2022-08-20T04:05:31.560Z,27.17
2022-08-20T04:08:03.120Z,27.18
2022-08-20T04:10:32.506Z,27.03
2022-08-20T04:13:00.478Z,27.11
2022-08-20T04:15:29.339Z,27.15
2022-08-20T04:17:57.003Z,27.09
2022-08-20T04:20:26.385Z,27.22
2022-08-20T04:22:58.683Z,27.27
2022-08-20T04:25:36.064Z,27.15
2022-08-20T04:28:06.429Z,27.17
2022-08-20T04:30:34.275Z,27.02
2022-08-20T04:33:02.678Z,26.44
2022-08-20T04:35:31.912Z,26.63
2022-08-20T04:38:06.955Z,26.44
2022-08-20T04:40:54.427Z,26.29
2022-08-20T04:43:23.940Z,25.92
2022-08-20T04:45:54.637Z,25.91
2022-08-20T04:48:25.353Z,26.03
2022-08-20T04:50:54.554Z,26.14
2022-08-20T04:53:26.024Z,26.22
2022-08-20T04:55:55.910Z,26.14
2022-08-20T04:58:27.744Z,26.31
2022-08-20T05:01:01.727Z,25.81
2022-08-20T05:03:30.103Z,25.72
2022-08-20T05:06:02.093Z,25.87
2022-08-20T05:08:30.105Z,25.41
2022-08-20T05:11:06.714Z,25.64
2022-08-20T05:13:45.799Z,25.11
2022-08-20T05:16:13.392Z,25.55
2022-08-20T05:18:41.092Z,25.62
2022-08-20T05:21:08.595Z,25.27
2022-08-20T05:23:37.880Z,25.73
2022-08-20T05:26:07.851Z,25.54
2022-08-20T05:28:52.715Z,25.37
2022-08-20T05:31:32.025Z,25.12
2022-08-20T05:34:02.167Z,25.14
2022-08-20T05:36:30.100Z,25.20
2022-08-20T05:38:57.641Z,25.29
2022-08-20T05:41:28.533Z,25.38
2022-08-20T05:44:02.801Z,24.76
2022-08-20T05:46:32.000Z,25.17
2022-08-20T05:49:02.123Z,25.02
2022-08-20T05:51:30.434Z,24.73
2022-08-20T05:53:58.275Z,24.68
2022-08-20T05:56:30.937Z,24.95
2022-08-20T05:59:04.569Z,25.28
2022-08-20T06:01:33.920Z,25.29
2022-08-20T06:04:20.235Z,25.11
2022-08-20T06:06:47.880Z,24.83
2022-08-20T06:09:30.871Z,25.07
2022-08-20T06:12:04.966Z,25.11
2022-08-20T06:14:33.546Z,25.24
2022-08-20T06:17:06.293Z,24.94
2022-08-20T06:19:35.880Z,25.03
2022-08-20T06:22:17.644Z,25.10
2022-08-20T06:24:48.351Z,25.11
2022-08-20T06:27:17.216Z,25.08
2022-08-20T06:29:44.760Z,24.87
2022-08-20T06:32:12.359Z,24.82
2022-08-20T06:34:50.711Z,25.01
2022-08-20T06:37:31.395Z,24.77
2022-08-20T06:40:23.487Z,24.91
2022-08-20T06:42:52.766Z,25.20
2022-08-20T06:45:24.741Z,24.70
2022-08-20T06:47:54.119Z,25.12
2022-08-20T06:50:28.201Z,24.88
2022-08-20T06:52:55.690Z,24.93
2022-08-20T06:55:24.196Z,24.24
2022-08-20T06:58:06.028Z,23.89
2022-08-20T07:00:36.075Z,23.39
2022-08-20T07:03:04.960Z,23.57
2022-08-20T07:05:42.497Z,23.61
2022-08-20T07:08:18.852Z,23.66
2022-08-20T07:10:46.296Z,23.85
2022-08-20T07:13:16.016Z,23.86
2022-08-20T07:15:44.754Z,23.65
2022-08-20T07:18:14.194Z,23.38
2022-08-20T07:20:41.945Z,23.63
2022-08-20T07:23:12.243Z,23.74
2022-08-20T07:25:44.667Z,23.41
2022-08-20T07:28:19.786Z,23.61
2022-08-20T07:31:13.495Z,23.32
2022-08-20T07:33:44.810Z,23.59
2022-08-20T07:36:12.879Z,23.35
2022-08-20T07:38:41.146Z,22.71
2022-08-20T07:41:13.636Z,23.29
2022-08-20T07:43:43.008Z,23.30
2022-08-20T07:46:10.509Z,23.47
2022-08-20T07:48:40.224Z,23.68
2022-08-20T07:51:13.819Z,23.93
2022-08-20T07:53:41.732Z,23.58
2022-08-20T07:56:12.918Z,23.88
2022-08-20T07:58:53.421Z,23.93
2022-08-20T08:01:26.250Z,23.76
2022-08-20T08:03:54.435Z,23.78
2022-08-20T08:06:29.538Z,23.00
2022-08-20T08:09:05.602Z,23.24
2022-08-20T08:11:38.073Z,22.57
2022-08-20T08:14:08.411Z,23.09
2022-08-20T08:16:36.860Z,23.24
2022-08-20T08:19:09.381Z,22.92
2022-08-20T08:21:36.859Z,22.87
2022-08-20T08:24:05.347Z,22.88
2022-08-20T08:26:32.931Z,22.57
2022-08-20T08:29:00.387Z,22.48
2022-08-20T08:31:27.936Z,22.49
2022-08-20T08:33:55.895Z,22.49
2022-08-20T08:36:23.432Z,22.66
2022-08-20T08:38:51.238Z,22.67
2022-08-20T08:41:32.786Z,22.73
2022-08-20T08:44:23.520Z,22.94
2022-08-20T08:47:04.443Z,22.23
2022-08-20T08:49:38.209Z,22.64
2022-08-20T08:52:14.938Z,22.38
2022-08-20T08:54:49.178Z,22.78
2022-08-20T08:57:17.093Z,22.79
2022-08-20T08:59:58.224Z,22.78
2022-08-20T09:02:35.686Z,22.84
2022-08-20T09:05:13.503Z,22.69
2022-08-20T09:07:46.045Z,23.13
2022-08-20T09:10:14.554Z,22.86
2022-08-20T09:12:47.748Z,23.02
2022-08-20T09:15:17.334Z,23.44
2022-08-20T09:17:44.796Z,23.29
2022-08-20T09:20:12.528Z,22.75
2022-08-20T09:22:41.386Z,23.25
2022-08-20T09:25:09.310Z,23.17
2022-08-20T09:27:38.038Z,22.67
2022-08-20T09:30:10.216Z,22.97
2022-08-20T09:32:37.794Z,22.31
2022-08-20T09:35:09.358Z,22.29
2022-08-20T09:37:38.020Z,22.59
2022-08-20T09:40:08.678Z,22.33
2022-08-20T09:42:41.424Z,22.16
2022-08-20T09:45:11.037Z,22.24
2022-08-20T09:47:54.812Z,22.45
2022-08-20T09:50:26.908Z,22.41
2022-08-20T09:52:56.196Z,22.60
2022-08-20T09:55:38.287Z,22.96
2022-08-20T09:58:35.803Z,22.23
2022-08-20T10:01:14.316Z,23.05
2022-08-20T10:03:43.719Z,23.02
2022-08-20T10:06:11.710Z,22.94
2022-08-20T10:08:39.183Z,23.03
2022-08-20T10:11:06.641Z,22.87
2022-08-20T10:13:34.168Z,22.35
2022-08-20T10:16:01.672Z,23.03
2022-08-20T10:18:29.158Z,22.69
2022-08-20T10:20:56.616Z,22.55
2022-08-20T10:23:24.088Z,22.05
2022-08-20T10:25:51.657Z,22.72
2022-08-20T10:28:19.213Z,22.58
2022-08-20T10:30:47.262Z,22.16
2022-08-20T10:33:14.789Z,21.67
2022-08-20T10:35:42.312Z,21.33
2022-08-20T10:38:09.776Z,21.65
2022-08-20T10:40:37.290Z,21.21
2022-08-20T10:43:04.859Z,21.59
2022-08-20T10:45:32.333Z,21.04
2022-08-20T10:48:00.767Z,21.37
2022-08-20T10:50:30.774Z,21.16
2022-08-20T10:52:58.739Z,20.86
2022-08-20T10:55:28.575Z,21.12
2022-08-20T10:57:56.160Z,20.97
2022-08-20T11:00:23.799Z,21.18
2022-08-20T11:02:52.111Z,20.70
2022-08-20T11:05:19.571Z,20.83
2022-08-20T11:07:53.500Z,21.17
2022-08-20T11:10:29.184Z,20.77
2022-08-20T11:12:56.869Z,20.84
2022-08-20T11:15:24.721Z,21.28
2022-08-20T11:17:52.711Z,21.31
2022-08-20T11:20:22.046Z,20.94
2022-08-20T11:22:49.677Z,21.06
2022-08-20T11:25:17.358Z,21.06
2022-08-20T11:27:48.508Z,20.82
2022-08-20T11:30:22.922Z,20.75
2022-08-20T11:32:50.983Z,21.13
2022-08-20T11:38:09.492Z,20.89
2022-08-20T11:40:37.087Z,21.22
2022-08-20T11:43:15.067Z,20.91
2022-08-20T11:45:45.727Z,20.73
2022-08-20T11:48:13.689Z,21.06
2022-08-20T11:50:41.493Z,20.51
2022-08-20T11:53:09.090Z,20.79
2022-08-20T11:55:38.874Z,20.74
2022-08-20T11:58:07.181Z,20.18
2022-08-20T12:00:37.125Z,20.26
2022-08-20T12:03:09.158Z,20.35
2022-08-20T12:05:39.291Z,20.71
2022-08-20T12:08:07.476Z,20.86
2022-08-20T12:10:35.794Z,20.29
2022-08-20T12:13:04.715Z,20.61
2022-08-20T12:15:34.950Z,20.52
2022-08-20T12:18:06.073Z,20.70
2022-08-20T12:20:34.450Z,21.08
2022-08-20T12:23:02.200Z,20.30
2022-08-20T12:25:30.153Z,20.43
2022-08-20T12:27:57.600Z,20.15
2022-08-20T12:30:25.793Z,20.36
2022-08-20T12:32:53.481Z,20.29
2022-08-20T12:35:21.260Z,20.24
2022-08-20T12:37:49.035Z,20.38
2022-08-20T12:40:24.453Z,20.72
2022-08-20T12:43:00.005Z,20.29
2022-08-20T12:45:27.698Z,20.22
2022-08-20T12:48:01.805Z,20.22
2022-08-20T12:50:31.644Z,20.73
2022-08-20T12:53:00.201Z,20.25
2022-08-20T12:55:28.135Z,20.17
2022-08-20T12:57:59.517Z,20.14
2022-08-20T13:00:28.744Z,20.48
2022-08-20T13:02:59.604Z,20.44
2022-08-20T13:05:27.886Z,19.98
2022-08-20T13:07:55.844Z,20.17
2022-08-20T13:10:32.353Z,19.41
2022-08-20T13:13:03.029Z,19.33
2022-08-20T13:15:32.160Z,19.06
2022-08-20T13:18:02.869Z,19.37
2022-08-20T13:20:34.685Z,19.01
2022-08-20T13:23:04.730Z,19.33
2022-08-20T13:25:33.142Z,19.17
2022-08-20T13:28:04.742Z,18.76
2022-08-20T13:30:34.483Z,18.70
2022-08-20T13:33:02.418Z,18.83
2022-08-20T13:35:30.068Z,18.80
2022-08-20T13:37:57.592Z,18.67
2022-08-20T13:40:26.146Z,18.69
2022-08-20T13:42:53.815Z,18.78
2022-08-20T13:45:21.489Z,18.97
2022-08-20T13:47:53.448Z,18.78
2022-08-20T13:50:23.125Z,18.84
2022-08-20T13:52:51.062Z,18.71
2022-08-20T13:55:21.798Z,18.87
2022-08-20T13:57:52.612Z,18.35
2022-08-20T14:00:26.413Z,18.82
2022-08-20T14:03:03.862Z,18.61
2022-08-20T14:05:32.509Z,19.11
2022-08-20T14:08:12.424Z,19.03
2022-08-20T14:10:42.543Z,18.84
2022-08-20T14:13:15.129Z,19.03
2022-08-20T14:15:43.927Z,19.40
2022-08-20T14:18:11.555Z,19.68
2022-08-20T14:20:40.546Z,19.33
2022-08-20T14:23:08.901Z,19.43
2022-08-20T14:25:36.990Z,19.56
2022-08-20T14:28:21.577Z,19.48
2022-08-20T14:30:53.255Z,19.95
2022-08-20T14:33:22.525Z,19.73
2022-08-20T14:35:50.063Z,19.92
2022-08-20T14:38:17.569Z,19.82
2022-08-20T14:40:45.237Z,19.91
2022-08-20T14:43:12.677Z,19.85
2022-08-20T14:45:40.171Z,19.98
2022-08-20T14:48:09.526Z,19.88
2022-08-20T14:50:37.749Z,20.07
2022-08-20T14:53:06.117Z,20.15
2022-08-20T14:55:37.722Z,20.31
2022-08-20T14:58:10.577Z,20.25
2022-08-20T15:00:38.661Z,19.99
2022-08-20T15:03:06.321Z,20.21
2022-08-20T15:05:34.759Z,20.03
2022-08-20T15:08:08.138Z,19.81
2022-08-20T15:10:39.388Z,19.38
2022-08-20T15:13:07.855Z,19.94
2022-08-20T15:15:35.612Z,19.63
2022-08-20T15:18:03.760Z,19.59
2022-08-20T15:20:33.173Z,19.77
2022-08-20T15:23:02.037Z,19.63
2022-08-20T15:25:36.401Z,20.14
2022-08-20T15:28:08.530Z,20.01
2022-08-20T15:30:38.564Z,20.11
2022-08-20T15:33:06.389Z,20.38
2022-08-20T15:35:34.016Z,20.42
2022-08-20T15:38:01.809Z,20.70
2022-08-20T15:40:32.361Z,20.77
2022-08-20T15:43:01.704Z,20.86
2022-08-20T15:45:29.491Z,20.81
2022-08-20T15:48:01.930Z,20.95
2022-08-20T15:50:41.253Z,20.54
2022-08-20T15:53:33.426Z,20.85
2022-08-20T15:56:18.809Z,20.37
2022-08-20T15:58:59.173Z,20.46
2022-08-20T16:01:56.990Z,20.32
2022-08-20T16:04:45.340Z,20.57
2022-08-20T16:07:23.990Z,20.69
2022-08-20T16:09:59.545Z,20.53
2022-08-20T16:12:39.757Z,20.28
2022-08-20T16:15:14.903Z,20.02
2022-08-20T16:18:03.580Z,20.14
2022-08-20T16:20:41.627Z,19.79
2022-08-20T16:23:11.295Z,19.78
2022-08-20T16:26:12.678Z,19.76
2022-08-20T16:29:08.726Z,19.50
2022-08-20T16:31:51.434Z,19.65
2022-08-20T16:34:32.213Z,19.84
2022-08-20T16:37:06.869Z,19.57
2022-08-20T16:39:45.943Z,19.86
2022-08-20T16:42:21.150Z,19.87
2022-08-20T16:44:53.610Z,19.71
2022-08-20T16:47:34.368Z,19.58
2022-08-20T16:50:22.967Z,19.88
2022-08-20T16:52:54.282Z,19.65
2022-08-20T16:55:23.642Z,19.86
2022-08-20T16:57:53.202Z,19.68
2022-08-20T17:00:23.424Z,20.01
2022-08-20T17:03:00.755Z,19.53
2022-08-20T17:05:45.987Z,19.76
2022-08-20T17:08:28.440Z,19.43
2022-08-20T17:10:59.654Z,19.94
2022-08-20T17:13:33.835Z,20.05
2022-08-20T17:16:18.757Z,19.62
2022-08-20T17:18:52.184Z,19.76
2022-08-20T17:21:28.702Z,20.14
2022-08-20T17:24:04.590Z,20.02
2022-08-20T17:26:44.754Z,20.00
2022-08-20T17:29:17.692Z,20.17
2022-08-20T17:31:49.014Z,20.13
2022-08-20T17:34:18.851Z,20.12
2022-08-20T17:36:59.086Z,19.80
2022-08-20T17:39:28.977Z,19.83
2022-08-20T17:42:09.087Z,20.03
2022-08-20T17:44:43.175Z,20.09
2022-08-20T17:47:16.471Z,20.19
2022-08-20T17:50:01.804Z,20.36
2022-08-20T17:52:49.368Z,20.45
2022-08-20T17:55:17.857Z,20.18
2022-08-20T17:57:50.102Z,20.53
2022-08-20T18:00:23.808Z,20.29
2022-08-20T18:02:55.294Z,20.51
2022-08-20T18:05:23.983Z,20.67
2022-08-20T18:08:11.736Z,20.68
2022-08-20T18:11:18.543Z,20.87
2022-08-20T18:14:00.847Z,20.75
2022-08-20T18:16:43.401Z,21.03
2022-08-20T18:19:20.882Z,20.95
2022-08-20T18:22:19.186Z,20.89
2022-08-20T18:25:18.584Z,21.17
2022-08-20T18:27:52.735Z,21.10
2022-08-20T18:30:23.219Z,21.29
2022-08-20T18:33:02.609Z,21.30
2022-08-20T18:35:46.090Z,21.29
2022-08-20T18:38:22.448Z,21.39
2022-08-20T18:40:55.209Z,21.49
2022-08-20T18:43:30.638Z,21.54
2022-08-20T18:46:14.008Z,21.62
2022-08-20T18:48:56.086Z,21.68
2022-08-20T18:51:30.597Z,21.84
2022-08-20T18:53:58.293Z,21.79
2022-08-20T18:56:35.733Z,21.97
2022-08-20T18:59:20.177Z,21.84
2022-08-20T19:01:49.409Z,21.94
2022-08-20T19:04:23.910Z,21.99
2022-08-20T19:06:57.982Z,21.66
2022-08-20T19:09:38.422Z,21.82
2022-08-20T19:12:27.515Z,21.88
2022-08-20T19:15:12.672Z,21.94
2022-08-20T19:17:42.990Z,21.84
2022-08-20T19:20:20.287Z,21.86
2022-08-20T19:22:50.669Z,21.86
2022-08-20T19:25:24.041Z,21.74
2022-08-20T19:27:51.980Z,21.31
2022-08-20T19:30:39.763Z,21.65
2022-08-20T19:33:08.703Z,21.75
2022-08-20T19:35:36.832Z,21.57
2022-08-20T19:38:07.179Z,21.59
2022-08-20T19:40:39.047Z,21.49
2022-08-20T19:43:14.259Z,21.59
2022-08-20T19:46:02.187Z,21.58
2022-08-20T19:49:14.885Z,21.62
2022-08-20T19:52:39.395Z,21.57
2022-08-20T19:55:19.406Z,21.64
2022-08-20T19:57:51.958Z,21.81
2022-08-20T20:00:19.965Z,21.74
2022-08-20T20:02:47.420Z,21.72
2022-08-20T20:05:15.064Z,21.62
2022-08-20T20:07:46.542Z,21.61
2022-08-20T20:10:35.894Z,21.61
2022-08-20T20:13:12.019Z,21.59
2022-08-20T20:15:40.627Z,21.95
2022-08-20T20:18:08.984Z,21.86
2022-08-20T20:20:55.823Z,21.71
2022-08-20T20:23:38.716Z,21.83
2022-08-20T20:26:17.955Z,22.14
2022-08-20T20:28:49.344Z,22.06
2022-08-20T20:31:30.609Z,22.05
2022-08-20T20:34:09.513Z,22.15
2022-08-20T20:36:43.726Z,21.96
2022-08-20T20:39:27.015Z,21.91
2022-08-20T20:41:57.873Z,22.04
2022-08-20T20:44:37.299Z,22.26
2022-08-20T20:47:10.019Z,22.17
2022-08-20T20:49:53.120Z,22.31
2022-08-20T20:52:25.270Z,22.37
2022-08-20T20:55:04.069Z,22.23
2022-08-20T20:57:36.291Z,22.82
2022-08-20T21:00:14.788Z,22.80
2022-08-20T21:02:42.356Z,22.62
2022-08-20T21:05:11.981Z,22.74
2022-08-20T21:07:50.199Z,22.78
2022-08-20T21:10:21.354Z,22.68
2022-08-20T21:12:52.663Z,22.87
2022-08-20T21:15:23.219Z,22.83
2022-08-20T21:17:51.301Z,22.95
2022-08-20T21:20:23.530Z,22.87
2022-08-20T21:22:51.663Z,22.67
2022-08-20T21:25:20.609Z,22.98
2022-08-20T21:27:50.844Z,22.99
2022-08-20T21:30:20.597Z,23.08
2022-08-20T21:32:48.358Z,23.11
2022-08-20T21:35:17.560Z,23.25
2022-08-20T21:37:45.071Z,23.32
2022-08-20T21:40:14.712Z,23.42
2022-08-20T21:42:46.120Z,23.45
2022-08-20T21:45:18.502Z,23.69
2022-08-20T21:47:48.952Z,23.55
2022-08-20T21:50:19.827Z,23.62
2022-08-20T21:52:55.281Z,23.67
2022-08-20T21:55:29.380Z,23.87
2022-08-20T21:57:58.125Z,23.78
2022-08-20T22:00:53.814Z,23.88
2022-08-20T22:03:25.186Z,24.22
2022-08-20T22:05:53.470Z,23.94
2022-08-20T22:08:21.932Z,24.42
2022-08-20T22:10:57.297Z,24.22
2022-08-20T22:13:28.576Z,24.02
2022-08-20T22:15:56.269Z,24.38
2022-08-20T22:18:24.020Z,24.46
2022-08-20T22:20:51.600Z,24.58
2022-08-20T22:23:19.445Z,24.46
2022-08-20T22:25:46.929Z,24.61
2022-08-20T22:28:14.394Z,24.57
2022-08-20T22:30:42.632Z,24.76
2022-08-20T22:33:16.971Z,24.83
2022-08-20T22:35:50.035Z,24.80
2022-08-20T22:38:18.049Z,24.72
2022-08-20T22:40:45.641Z,24.85
2022-08-20T22:43:14.719Z,24.97
2022-08-20T22:45:45.902Z,25.05
2022-08-20T22:48:17.455Z,25.04
2022-08-20T22:50:45.749Z,24.90
2022-08-20T22:53:14.555Z,24.91
2022-08-20T22:55:42.248Z,24.88
2022-08-20T22:58:10.802Z,24.86
2022-08-20T23:00:38.777Z,25.05
2022-08-20T23:03:07.291Z,24.96
2022-08-20T23:05:37.155Z,24.87
2022-08-20T23:08:06.376Z,24.83
2022-08-20T23:10:35.526Z,24.99
2022-08-20T23:13:03.401Z,24.85
2022-08-20T23:15:35.161Z,25.06
2022-08-20T23:18:07.519Z,24.84
2022-08-20T23:20:35.436Z,24.96
2022-08-20T23:23:03.234Z,24.87
2022-08-20T23:25:31.016Z,24.87
2022-08-20T23:28:04.252Z,24.94
2022-08-20T23:30:32.778Z,25.03
2022-08-20T23:33:01.703Z,25.05
2022-08-20T23:35:32.294Z,24.96
2022-08-20T23:38:04.063Z,24.91
2022-08-20T23:40:31.965Z,25.04
2022-08-20T23:42:59.774Z,25.06
2022-08-20T23:45:28.994Z,24.92
2022-08-20T23:47:56.571Z,25.21
2022-08-20T23:50:28.719Z,25.06
2022-08-20T23:52:57.590Z,25.20
2022-08-20T23:55:25.551Z,24.93
2022-08-20T23:57:53.644Z,25.00
